Salten — LMFM — position and weather

sailwx.info

Track history (hours):
 
Tides and Currents Weather Stations Pressure Air Temp Water Temp Dewpoint Dewpoint Depression Visibility Wind Speed Wind Dir Waves Ship Positions

Salten

Last reported at 2016-Jul-27 07:33 UTC. Time now 2016-Jul-27 07:41 UTC.
Position N 67°29' E 014°35'.

Length 41 m; draft 2 m.

Type: High speed craft. MMSI: 259387000.

Date/timePositionNaut miles runAvg speedWind from/ knotsBaromVisibWave heightAir tempDewpointWater temp
2016-Jul-27 07:33N 67°29' E 014°35'6 0.4
2016-Jul-26 15:33N 67°24' E 014°26'7 6.8
2016-Jul-26 14:33N 67°17' E 014°22'0 0.0
2016-Jul-26 13:34N 67°17' E 014°22'0 0.0
2016-Jul-26 12:33N 67°17' E 014°22'0 0.0
2016-Jul-26 11:33N 67°17' E 014°22'0 0.4
2016-Jul-26 10:33N 67°17' E 014°23'1313.4
2016-Jul-26 09:33N 67°08' E 013°58'4414.2
2016-Jul-26 06:26N 66°30' E 012°60'10 0.8
2016-Jul-25 18:32N 66°21' E 012°59'3611.6
2016-Jul-25 15:26N 66°54' E 013°31'1517.4
2016-Jul-25 14:33N 67°06' E 013°57'1515.2
2016-Jul-25 13:33N 67°17' E 014°22'0 0.0
2016-Jul-25 12:33N 67°17' E 014°22'0 0.0
2016-Jul-25 11:33N 67°17' E 014°22'0 0.0
2016-Jul-25 10:33N 67°17' E 014°22'1010.4
2016-Jul-25 09:34N 67°10' E 014°03'4615.1
2016-Jul-25 06:30N 66°31' E 013°00'10 0.7
2016-Jul-24 15:12N 66°21' E 012°50'1015.2
2016-Jul-24 14:32N 66°31' E 013°00'2712.5
2016-Jul-24 12:25N 66°54' E 013°31'1720.3
2016-Jul-24 11:33N 67°08' E 013°58'1312.9
2016-Jul-24 10:33N 67°17' E 014°22'0 0.0
2016-Jul-24 09:33N 67°17' E 014°22'0 0.0
2016-Jul-24 08:33N 67°17' E 014°22'0 0.0
2016-Jul-24 07:33N 67°17' E 014°22'0 0.0
2016-Jul-24 06:33N 67°17' E 014°22'0 0.0
2016-Jul-24 05:33N 67°17' E 014°22'0 0.0
2016-Jul-24 04:33N 67°17' E 014°22'0 0.0
2016-Jul-24 03:33N 67°17' E 014°22'0 0.0
2016-Jul-24 02:33N 67°17' E 014°22'0 0.0
2016-Jul-24 01:33N 67°17' E 014°22'0 0.0
2016-Jul-24 00:33N 67°17' E 014°22'0 0.0
2016-Jul-23 23:33N 67°17' E 014°22'0 0.0
2016-Jul-23 22:33N 67°17' E 014°22'0 0.0
2016-Jul-23 21:33N 67°17' E 014°22'0 0.0
2016-Jul-23 20:33N 67°17' E 014°22'0 0.0
2016-Jul-23 19:33N 67°17' E 014°22'0 0.0
2016-Jul-23 18:33N 67°17' E 014°22'0 0.0
2016-Jul-23 17:33N 67°17' E 014°22'0 0.0
2016-Jul-23 16:33N 67°17' E 014°22'0 0.0
2016-Jul-23 15:33N 67°17' E 014°22'0 0.0
2016-Jul-23 14:33N 67°17' E 014°22'0 0.0
2016-Jul-23 13:33N 67°17' E 014°22'0 0.0
2016-Jul-23 12:33N 67°17' E 014°22'0 0.0
2016-Jul-23 11:33N 67°17' E 014°22'0 0.0
2016-Jul-23 10:33N 67°17' E 014°22'0 0.0
2016-Jul-23 09:33N 67°17' E 014°22'0 0.4
2016-Jul-23 08:33N 67°17' E 014°23'1716.6
2016-Jul-23 07:34N 67°32' E 014°42'1 0.1
2016-Jul-22 16:33N 67°31' E 014°40'1615.6
2016-Jul-22 15:34N 67°17' E 014°22'2214.8
2016-Jul-22 14:04N 67°38' E 014°40'1529.3
2016-Jul-22 13:33N 67°25' E 014°27'8 7.5
2016-Jul-22 12:33N 67°17' E 014°22'0 0.1
2016-Jul-22 11:33N 67°17' E 014°22'0 0.0
2016-Jul-22 10:33N 67°17' E 014°22'0 0.0
2016-Jul-22 09:33N 67°17' E 014°22'0 0.0
2016-Jul-22 08:33N 67°17' E 014°22'1816.0
2016-Jul-22 07:26N 67°34' E 014°34'4 0.3
2016-Jul-21 16:09N 67°38' E 014°40'1728.4
2016-Jul-21 15:33N 67°22' E 014°25'5 5.4
2016-Jul-21 14:34N 67°17' E 014°22'0 0.0
2016-Jul-21 13:34N 67°17' E 014°22'0 0.0
2016-Jul-21 12:33N 67°17' E 014°22'0 0.0
2016-Jul-21 11:33N 67°17' E 014°22'0 0.0
2016-Jul-21 10:34N 67°17' E 014°22'1010.0
2016-Jul-21 09:33N 67°10' E 014°03'4715.2
2016-Jul-21 06:29N 66°31' E 013°00'10 0.8
2016-Jul-20 18:28N 66°21' E 012°57'5012.8
2016-Jul-20 14:33N 67°05' E 013°55'1615.9
2016-Jul-20 13:33N 67°17' E 014°22'0 0.0
2016-Jul-20 12:33N 67°17' E 014°22'0 0.0
2016-Jul-20 11:33N 67°17' E 014°22'0 0.0
2016-Jul-20 10:33N 67°17' E 014°22'0 0.0
2016-Jul-20 09:34N 67°17' E 014°22'0 0.0
2016-Jul-20 08:33N 67°17' E 014°22'1312.5
2016-Jul-20 07:33N 67°29' E 014°30'9 0.6
2016-Jul-19 16:04N 67°37' E 014°42'1427.8
2016-Jul-19 15:33N 67°23' E 014°30'7 7.1
2016-Jul-19 14:33N 67°17' E 014°22'0 0.0
2016-Jul-19 13:34N 67°17' E 014°22'0 0.0
2016-Jul-19 12:34N 67°17' E 014°22'0 0.0
2016-Jul-19 11:34N 67°17' E 014°22'1 0.7
2016-Jul-19 10:34N 67°17' E 014°24'1211.8
2016-Jul-19 09:33N 67°09' E 014°02'4814.7
2016-Jul-19 06:18N 66°29' E 012°58'29 1.9
2016-Jul-18 15:25N 66°54' E 013°32'1518.1
2016-Jul-18 14:34N 67°06' E 013°57'1514.9
2016-Jul-18 13:33N 67°17' E 014°22'0 0.0
2016-Jul-18 12:33N 67°17' E 014°22'0 0.0
2016-Jul-18 11:33N 67°17' E 014°22'0 0.0
2016-Jul-18 10:33N 67°17' E 014°22'1010.0
2016-Jul-18 09:32N 67°10' E 014°03'4915.3
2016-Jul-18 06:20N 66°29' E 012°57'11 0.7
2016-Jul-17 15:32N 66°18' E 012°57'4012.0
2016-Jul-17 12:13N 66°56' E 013°26'1826.7
2016-Jul-17 11:34N 67°08' E 013°58'1312.9
2016-Jul-17 10:33N 67°17' E 014°22'0 0.0
2016-Jul-17 09:33N 67°17' E 014°22'0 0.0
2016-Jul-17 08:33N 67°17' E 014°22'0 0.0
2016-Jul-17 07:33N 67°17' E 014°22'0 0.0
2016-Jul-17 06:33N 67°17' E 014°22'0 0.0
2016-Jul-17 04:33N 67°17' E 014°22'0 0.0
2016-Jul-17 03:33N 67°17' E 014°22'0 0.0
2016-Jul-17 02:33N 67°17' E 014°22'0 0.0
2016-Jul-17 01:33N 67°17' E 014°22'0 0.0
2016-Jul-17 00:33N 67°17' E 014°22'0 0.0
2016-Jul-16 23:33N 67°17' E 014°22'0 0.0
2016-Jul-16 22:33N 67°17' E 014°22'0 0.0
2016-Jul-16 21:33N 67°17' E 014°22'0 0.0
2016-Jul-16 20:33N 67°17' E 014°22'0 0.0
2016-Jul-16 19:33N 67°17' E 014°22'0 0.0
2016-Jul-16 18:33N 67°17' E 014°22'0 0.0
2016-Jul-16 17:33N 67°17' E 014°22'0 0.0
2016-Jul-16 16:33N 67°17' E 014°22'0 0.0
2016-Jul-16 15:34N 67°17' E 014°22'  
Track history (hours):
 
Tides and Currents Weather Stations Pressure Air Temp Water Temp Dewpoint Dewpoint Depression Visibility Wind Speed Wind Dir Waves Ship Positions

Salten

Last reported at 2016-Jul-27 07:33 UTC. Time now 2016-Jul-27 07:41 UTC.
Position N 67°29' E 014°35'.

Length 41 m; draft 2 m.

Type: High speed craft. MMSI: 259387000.

Date/timePositionNaut miles runAvg speedWind from/ knotsBaromVisibWave heightAir tempDewpointWater temp
2016-Jul-27 07:33N 67°29' E 014°35'6 0.4
2016-Jul-26 15:33N 67°24' E 014°26'7 6.8
2016-Jul-26 14:33N 67°17' E 014°22'0 0.0
2016-Jul-26 13:34N 67°17' E 014°22'0 0.0
2016-Jul-26 12:33N 67°17' E 014°22'0 0.0
2016-Jul-26 11:33N 67°17' E 014°22'0 0.4
2016-Jul-26 10:33N 67°17' E 014°23'1313.4
2016-Jul-26 09:33N 67°08' E 013°58'4414.2
2016-Jul-26 06:26N 66°30' E 012°60'10 0.8
2016-Jul-25 18:32N 66°21' E 012°59'3611.6
2016-Jul-25 15:26N 66°54' E 013°31'1517.4
2016-Jul-25 14:33N 67°06' E 013°57'1515.2
2016-Jul-25 13:33N 67°17' E 014°22'0 0.0
2016-Jul-25 12:33N 67°17' E 014°22'0 0.0
2016-Jul-25 11:33N 67°17' E 014°22'0 0.0
2016-Jul-25 10:33N 67°17' E 014°22'1010.4
2016-Jul-25 09:34N 67°10' E 014°03'4615.1
2016-Jul-25 06:30N 66°31' E 013°00'10 0.7
2016-Jul-24 15:12N 66°21' E 012°50'1015.2
2016-Jul-24 14:32N 66°31' E 013°00'2712.5
2016-Jul-24 12:25N 66°54' E 013°31'1720.3
2016-Jul-24 11:33N 67°08' E 013°58'1312.9
2016-Jul-24 10:33N 67°17' E 014°22'0 0.0
2016-Jul-24 09:33N 67°17' E 014°22'0 0.0
2016-Jul-24 08:33N 67°17' E 014°22'0 0.0
2016-Jul-24 07:33N 67°17' E 014°22'0 0.0
2016-Jul-24 06:33N 67°17' E 014°22'0 0.0
2016-Jul-24 05:33N 67°17' E 014°22'0 0.0
2016-Jul-24 04:33N 67°17' E 014°22'0 0.0
2016-Jul-24 03:33N 67°17' E 014°22'0 0.0
2016-Jul-24 02:33N 67°17' E 014°22'0 0.0
2016-Jul-24 01:33N 67°17' E 014°22'0 0.0
2016-Jul-24 00:33N 67°17' E 014°22'0 0.0
2016-Jul-23 23:33N 67°17' E 014°22'0 0.0
2016-Jul-23 22:33N 67°17' E 014°22'0 0.0
2016-Jul-23 21:33N 67°17' E 014°22'0 0.0
2016-Jul-23 20:33N 67°17' E 014°22'0 0.0
2016-Jul-23 19:33N 67°17' E 014°22'0 0.0
2016-Jul-23 18:33N 67°17' E 014°22'0 0.0
2016-Jul-23 17:33N 67°17' E 014°22'0 0.0
2016-Jul-23 16:33N 67°17' E 014°22'0 0.0
2016-Jul-23 15:33N 67°17' E 014°22'0 0.0
2016-Jul-23 14:33N 67°17' E 014°22'0 0.0
2016-Jul-23 13:33N 67°17' E 014°22'0 0.0
2016-Jul-23 12:33N 67°17' E 014°22'0 0.0
2016-Jul-23 11:33N 67°17' E 014°22'0 0.0
2016-Jul-23 10:33N 67°17' E 014°22'0 0.0
2016-Jul-23 09:33N 67°17' E 014°22'0 0.4
2016-Jul-23 08:33N 67°17' E 014°23'1716.6
2016-Jul-23 07:34N 67°32' E 014°42'1 0.1
2016-Jul-22 16:33N 67°31' E 014°40'1615.6
2016-Jul-22 15:34N 67°17' E 014°22'2214.8
2016-Jul-22 14:04N 67°38' E 014°40'1529.3
2016-Jul-22 13:33N 67°25' E 014°27'8 7.5
2016-Jul-22 12:33N 67°17' E 014°22'0 0.1
2016-Jul-22 11:33N 67°17' E 014°22'0 0.0
2016-Jul-22 10:33N 67°17' E 014°22'0 0.0
2016-Jul-22 09:33N 67°17' E 014°22'0 0.0
2016-Jul-22 08:33N 67°17' E 014°22'1816.0
2016-Jul-22 07:26N 67°34' E 014°34'4 0.3
2016-Jul-21 16:09N 67°38' E 014°40'1728.4
2016-Jul-21 15:33N 67°22' E 014°25'5 5.4
2016-Jul-21 14:34N 67°17' E 014°22'0 0.0
2016-Jul-21 13:34N 67°17' E 014°22'0 0.0
2016-Jul-21 12:33N 67°17' E 014°22'0 0.0
2016-Jul-21 11:33N 67°17' E 014°22'0 0.0
2016-Jul-21 10:34N 67°17' E 014°22'1010.0
2016-Jul-21 09:33N 67°10' E 014°03'4715.2
2016-Jul-21 06:29N 66°31' E 013°00'10 0.8
2016-Jul-20 18:28N 66°21' E 012°57'5012.8
2016-Jul-20 14:33N 67°05' E 013°55'1615.9
2016-Jul-20 13:33N 67°17' E 014°22'0 0.0
2016-Jul-20 12:33N 67°17' E 014°22'0 0.0
2016-Jul-20 11:33N 67°17' E 014°22'0 0.0
2016-Jul-20 10:33N 67°17' E 014°22'0 0.0
2016-Jul-20 09:34N 67°17' E 014°22'0 0.0
2016-Jul-20 08:33N 67°17' E 014°22'1312.5
2016-Jul-20 07:33N 67°29' E 014°30'9 0.6
2016-Jul-19 16:04N 67°37' E 014°42'1427.8
2016-Jul-19 15:33N 67°23' E 014°30'7 7.1
2016-Jul-19 14:33N 67°17' E 014°22'0 0.0
2016-Jul-19 13:34N 67°17' E 014°22'0 0.0
2016-Jul-19 12:34N 67°17' E 014°22'0 0.0
2016-Jul-19 11:34N 67°17' E 014°22'1 0.7
2016-Jul-19 10:34N 67°17' E 014°24'1211.8
2016-Jul-19 09:33N 67°09' E 014°02'4814.7
2016-Jul-19 06:18N 66°29' E 012°58'29 1.9
2016-Jul-18 15:25N 66°54' E 013°32'1518.1
2016-Jul-18 14:34N 67°06' E 013°57'1514.9
2016-Jul-18 13:33N 67°17' E 014°22'0 0.0
2016-Jul-18 12:33N 67°17' E 014°22'0 0.0
2016-Jul-18 11:33N 67°17' E 014°22'0 0.0
2016-Jul-18 10:33N 67°17' E 014°22'1010.0
2016-Jul-18 09:32N 67°10' E 014°03'4915.3
2016-Jul-18 06:20N 66°29' E 012°57'11 0.7
2016-Jul-17 15:32N 66°18' E 012°57'4012.0
2016-Jul-17 12:13N 66°56' E 013°26'1826.7
2016-Jul-17 11:34N 67°08' E 013°58'1312.9
2016-Jul-17 10:33N 67°17' E 014°22'0 0.0
2016-Jul-17 09:33N 67°17' E 014°22'0 0.0
2016-Jul-17 08:33N 67°17' E 014°22'0 0.0
2016-Jul-17 07:33N 67°17' E 014°22'0 0.0
2016-Jul-17 06:33N 67°17' E 014°22'0 0.0
2016-Jul-17 04:33N 67°17' E 014°22'0 0.0
2016-Jul-17 03:33N 67°17' E 014°22'0 0.0
2016-Jul-17 02:33N 67°17' E 014°22'0 0.0
2016-Jul-17 01:33N 67°17' E 014°22'0 0.0
2016-Jul-17 00:33N 67°17' E 014°22'0 0.0
2016-Jul-16 23:33N 67°17' E 014°22'0 0.0
2016-Jul-16 22:33N 67°17' E 014°22'0 0.0
2016-Jul-16 21:33N 67°17' E 014°22'0 0.0
2016-Jul-16 20:33N 67°17' E 014°22'0 0.0
2016-Jul-16 19:33N 67°17' E 014°22'0 0.0
2016-Jul-16 18:33N 67°17' E 014°22'0 0.0
2016-Jul-16 17:33N 67°17' E 014°22'0 0.0
2016-Jul-16 16:33N 67°17' E 014°22'0 0.0
2016-Jul-16 15:34N 67°17' E 014°22'  

Dump ship's entire track history